createdAt,value
2018-11-05T00:01:25.067Z,14.90
2018-11-05T00:03:53.256Z,16.30
2018-11-05T00:06:21.563Z,17.73
2018-11-05T00:08:49.740Z,11.40
2018-11-05T00:11:18.031Z,16.00
2018-11-05T00:13:46.320Z,14.70
2018-11-05T00:16:14.503Z,15.60
2018-11-05T00:18:42.623Z,14.33
2018-11-05T00:21:10.887Z,16.83
2018-11-05T00:23:39.048Z,26.60
2018-11-05T00:26:07.164Z,16.80
2018-11-05T00:28:35.371Z,14.40
2018-11-05T00:31:03.513Z,15.93
2018-11-05T00:33:31.732Z,22.10
2018-11-05T00:35:59.872Z,13.70
2018-11-05T00:38:28.044Z,18.13
2018-11-05T00:40:57.213Z,21.53
2018-11-05T00:43:25.347Z,16.90
2018-11-05T00:45:53.572Z,15.47
2018-11-05T00:48:21.779Z,15.57
2018-11-05T00:50:49.875Z,16.00
2018-11-05T00:53:18.085Z,12.43
2018-11-05T00:55:46.261Z,21.17
2018-11-05T00:58:14.924Z,16.62
2018-11-05T01:00:43.419Z,16.17
2018-11-05T01:03:11.636Z,17.70
2018-11-05T01:05:39.737Z,16.95
2018-11-05T01:08:07.947Z,14.23
2018-11-05T01:10:36.205Z,17.73
2018-11-05T01:13:04.314Z,16.70
2018-11-05T01:15:32.764Z,16.57
2018-11-05T01:18:01.087Z,15.97
2018-11-05T01:20:29.453Z,16.47
2018-11-05T01:22:57.685Z,12.00
2018-11-05T01:25:25.903Z,16.90
2018-11-05T01:27:54.275Z,19.70
2018-11-05T01:30:22.652Z,13.13
2018-11-05T01:32:51.008Z,16.50
2018-11-05T01:35:19.416Z,14.05
2018-11-05T01:37:47.741Z,15.40
2018-11-05T01:40:16.378Z,19.98
2018-11-05T01:42:44.597Z,14.20
2018-11-05T01:45:13.776Z,18.13
2018-11-05T01:47:42.767Z,18.60
2018-11-05T01:50:12.588Z,22.43
2018-11-05T01:52:41.080Z,15.70
2018-11-05T01:55:09.875Z,14.43
2018-11-05T01:57:38.692Z,17.00
2018-11-05T02:00:12.475Z,17.70
2018-11-05T02:02:40.617Z,15.88
2018-11-05T02:05:09.687Z,24.18
2018-11-05T02:07:37.911Z,20.08
2018-11-05T02:10:08.896Z,24.20
2018-11-05T02:12:37.035Z,19.08
2018-11-05T02:15:05.545Z,25.80
2018-11-05T02:17:33.762Z,22.03
2018-11-05T02:20:02.450Z,21.57
2018-11-05T02:22:33.761Z,21.47
2018-11-05T02:25:02.700Z,24.92
2018-11-05T02:27:30.953Z,20.67
2018-11-05T02:29:59.126Z,22.73
2018-11-05T02:32:27.407Z,15.10
2018-11-05T02:34:55.597Z,17.55
2018-11-05T02:37:23.857Z,16.15
2018-11-05T02:39:52.004Z,15.13
2018-11-05T02:42:20.938Z,19.40
2018-11-05T02:44:49.196Z,15.60
2018-11-05T02:47:17.340Z,19.80
2018-11-05T02:49:45.804Z,16.43
2018-11-05T02:52:13.955Z,19.10
2018-11-05T02:54:42.432Z,22.10
2018-11-05T02:57:10.550Z,15.73
2018-11-05T02:59:38.876Z,18.70
2018-11-05T03:02:06.999Z,17.67
2018-11-05T03:04:35.138Z,19.90
2018-11-05T03:07:03.792Z,21.70
2018-11-05T03:09:31.942Z,20.30
2018-11-05T03:12:00.102Z,19.60
2018-11-05T03:14:28.340Z,17.03
2018-11-05T03:16:56.748Z,17.70
2018-11-05T03:19:24.962Z,17.73
2018-11-05T03:21:53.196Z,15.40
2018-11-05T03:24:21.336Z,19.33
2018-11-05T03:26:49.589Z,16.10
2018-11-05T03:29:17.906Z,16.43
2018-11-05T03:31:46.070Z,21.27
2018-11-05T03:34:14.420Z,18.27
2018-11-05T03:36:42.700Z,16.57
2018-11-05T03:39:11.916Z,20.03
2018-11-05T03:41:40.463Z,18.37
2018-11-05T03:44:09.321Z,17.93
2018-11-05T03:46:37.896Z,15.47
2018-11-05T03:49:06.731Z,29.43
2018-11-05T03:51:35.599Z,19.98
2018-11-05T03:54:04.104Z,18.97
2018-11-05T03:56:32.270Z,15.07
2018-11-05T03:59:00.420Z,18.97
2018-11-05T04:01:28.608Z,15.60
2018-11-05T04:03:56.796Z,14.37
2018-11-05T04:06:24.945Z,16.80
2018-11-05T04:08:53.235Z,13.40
2018-11-05T04:11:21.378Z,14.83
2018-11-05T04:13:49.553Z,19.53
2018-11-05T04:16:17.723Z,14.87
2018-11-05T04:18:46.003Z,18.17
2018-11-05T04:21:14.144Z,17.80
2018-11-05T04:23:42.327Z,19.63
2018-11-05T04:26:10.531Z,14.27
2018-11-05T04:28:38.766Z,12.03
2018-11-05T04:31:07.100Z,9.97
2018-11-05T04:33:35.323Z,12.03
2018-11-05T04:36:03.511Z,12.43
2018-11-05T04:38:31.741Z,11.57
2018-11-05T04:40:59.922Z,14.67
2018-11-05T04:43:28.134Z,14.20
2018-11-05T04:45:56.340Z,13.70
2018-11-05T04:48:24.475Z,10.20
2018-11-05T04:50:52.697Z,10.73
2018-11-05T04:53:21.087Z,11.80
2018-11-05T04:55:49.509Z,13.90
2018-11-05T04:58:17.931Z,12.67
2018-11-05T05:00:46.347Z,12.30
2018-11-05T05:03:14.494Z,13.80
2018-11-05T05:05:42.600Z,8.03
2018-11-05T05:08:10.740Z,11.73
2018-11-05T05:10:38.937Z,13.97
2018-11-05T05:13:07.868Z,12.88
2018-11-05T05:15:35.983Z,8.77
2018-11-05T05:18:04.216Z,11.13
2018-11-05T05:20:32.388Z,15.20
2018-11-05T05:23:00.802Z,13.73
2018-11-05T05:25:28.772Z,11.03
2018-11-05T05:27:56.937Z,10.60
2018-11-05T05:30:25.267Z,13.03
2018-11-05T05:32:53.522Z,11.25
2018-11-05T05:35:21.732Z,9.30
2018-11-05T05:37:50.020Z,8.27
2018-11-05T05:40:18.202Z,12.33
2018-11-05T05:42:46.376Z,15.60
2018-11-05T05:45:14.547Z,10.90
2018-11-05T05:47:43.221Z,12.87
2018-11-05T05:50:13.550Z,14.80
2018-11-05T05:52:42.655Z,9.30
2018-11-05T05:55:10.863Z,19.40
2018-11-05T05:57:39.520Z,15.72
2018-11-05T06:00:11.187Z,14.83
2018-11-05T06:02:39.708Z,12.95
2018-11-05T06:05:08.719Z,18.93
2018-11-05T06:07:37.203Z,12.87
2018-11-05T06:10:05.907Z,22.80
2018-11-05T06:12:34.228Z,12.63
2018-11-05T06:15:02.377Z,13.20
2018-11-05T06:17:30.649Z,13.30
2018-11-05T06:19:58.847Z,15.83
2018-11-05T06:22:27.092Z,14.75
2018-11-05T06:24:55.252Z,13.98
2018-11-05T06:27:23.439Z,16.77
2018-11-05T06:29:51.721Z,14.20
2018-11-05T06:32:19.965Z,14.70
2018-11-05T06:34:48.315Z,15.50
2018-11-05T06:37:16.584Z,17.20
2018-11-05T06:39:44.911Z,14.30
2018-11-05T06:42:13.140Z,15.03
2018-11-05T06:44:41.520Z,25.80
2018-11-05T06:47:09.905Z,17.30
2018-11-05T06:49:38.175Z,21.77
2018-11-05T06:52:06.439Z,20.33
2018-11-05T06:54:34.592Z,20.33
2018-11-05T06:57:02.804Z,23.70
2018-11-05T06:59:31.106Z,20.10
2018-11-05T07:01:59.293Z,23.90
2018-11-05T07:04:27.492Z,20.10
2018-11-05T07:06:55.807Z,23.27
2018-11-05T07:09:24.051Z,23.97
2018-11-05T07:11:52.323Z,21.37
2018-11-05T07:14:20.640Z,21.80
2018-11-05T07:16:48.771Z,14.63
2018-11-05T07:19:17.456Z,15.90
2018-11-05T07:21:46.143Z,23.10
2018-11-05T07:24:14.560Z,21.62
2018-11-05T07:26:42.760Z,16.30
2018-11-05T07:29:11.022Z,23.90
2018-11-05T07:31:39.199Z,30.33
2018-11-05T07:34:07.578Z,28.43
2018-11-05T07:36:35.892Z,25.67
2018-11-05T07:39:05.961Z,21.60
2018-11-05T07:41:34.291Z,23.67
2018-11-05T07:44:02.445Z,14.73
2018-11-05T07:46:30.726Z,20.50
2018-11-05T07:48:58.860Z,20.10
2018-11-05T07:51:27.084Z,16.90
2018-11-05T07:53:55.333Z,20.33
2018-11-05T07:56:23.647Z,15.00
2018-11-05T07:58:51.885Z,13.67
2018-11-05T08:01:20.056Z,19.63
2018-11-05T08:03:48.291Z,16.67
2018-11-05T08:06:16.515Z,16.47
2018-11-05T08:08:44.752Z,20.53
2018-11-05T08:11:12.881Z,22.63
2018-11-05T08:13:41.032Z,22.70
2018-11-05T08:16:09.358Z,22.82
2018-11-05T08:18:37.648Z,18.70
2018-11-05T08:21:05.860Z,23.73
2018-11-05T08:23:34.219Z,23.00
2018-11-05T08:26:02.405Z,15.30
2018-11-05T08:28:30.604Z,17.98
2018-11-05T08:30:58.762Z,16.95
2018-11-05T08:33:27.056Z,13.08
2018-11-05T08:35:55.357Z,13.03
2018-11-05T08:38:23.463Z,14.67
2018-11-05T08:40:51.626Z,12.60
2018-11-05T08:43:19.833Z,16.67
2018-11-05T08:45:48.008Z,19.20
2018-11-05T08:48:16.246Z,16.15
2018-11-05T08:50:45.603Z,14.18
2018-11-05T08:53:13.691Z,14.30
2018-11-05T08:55:41.988Z,11.53
2018-11-05T08:58:10.139Z,24.70
2018-11-05T09:00:43.569Z,13.27
2018-11-05T09:03:11.865Z,11.20
2018-11-05T09:05:40.178Z,12.30
2018-11-05T09:08:08.379Z,12.43
2018-11-05T09:10:36.871Z,10.50
2018-11-05T09:13:05.273Z,10.43
2018-11-05T09:15:33.418Z,10.80
2018-11-05T09:18:01.808Z,12.20
2018-11-05T09:20:30.199Z,15.70
2018-11-05T09:22:58.382Z,18.70
2018-11-05T09:25:26.602Z,21.80
2018-11-05T09:27:54.809Z,22.47
2018-11-05T09:30:24.121Z,19.27
2018-11-05T09:32:52.655Z,19.50
2018-11-05T09:35:20.861Z,18.42
2018-11-05T09:37:49.154Z,13.00
2018-11-05T09:40:20.661Z,16.67
2018-11-05T09:42:49.316Z,13.88
2018-11-05T09:45:25.862Z,17.83
2018-11-05T09:47:54.038Z,12.75
2018-11-05T09:50:22.226Z,14.28
2018-11-05T09:52:50.383Z,13.62
2018-11-05T09:55:18.823Z,12.73
2018-11-05T09:57:47.616Z,14.33
2018-11-05T10:00:20.601Z,18.20
2018-11-05T10:02:54.480Z,9.48
2018-11-05T10:05:22.880Z,10.97
2018-11-05T10:07:51.127Z,11.40
2018-11-05T10:10:19.401Z,13.27
2018-11-05T10:12:48.272Z,12.80
2018-11-05T10:15:17.372Z,12.50
2018-11-05T10:17:45.612Z,12.07
2018-11-05T10:20:16.066Z,12.97
2018-11-05T10:22:44.675Z,9.07
2018-11-05T10:25:13.663Z,12.47
2018-11-05T10:27:41.883Z,13.13
2018-11-05T10:30:14.578Z,11.93
2018-11-05T10:32:43.216Z,10.57
2018-11-05T10:35:11.882Z,12.90
2018-11-05T10:37:40.406Z,9.68
2018-11-05T10:40:10.822Z,13.17
2018-11-05T10:42:39.088Z,11.47
2018-11-05T10:45:08.622Z,18.13
2018-11-05T10:47:37.444Z,14.43
2018-11-05T10:50:06.319Z,17.60
2018-11-05T10:52:34.487Z,12.10
2018-11-05T10:55:02.704Z,16.45
2018-11-05T10:57:31.053Z,21.20
2018-11-05T10:59:59.412Z,16.67
2018-11-05T11:02:32.919Z,15.50
2018-11-05T11:05:01.232Z,35.48
2018-11-05T11:07:29.492Z,20.03
2018-11-05T11:09:57.791Z,22.40
2018-11-05T11:12:25.984Z,20.53
2018-11-05T11:14:54.511Z,21.37
2018-11-05T11:17:22.913Z,23.38
2018-11-05T11:19:51.268Z,40.40
2018-11-05T11:22:19.469Z,21.37
2018-11-05T11:24:47.684Z,18.63
2018-11-05T11:27:15.893Z,20.37
2018-11-05T11:29:44.113Z,19.47
2018-11-05T11:32:12.254Z,19.05
2018-11-05T11:34:40.456Z,17.48
2018-11-05T11:37:08.968Z,20.03
2018-11-05T11:39:37.140Z,18.83
2018-11-05T11:42:05.338Z,20.03
2018-11-05T11:44:33.518Z,22.73
2018-11-05T11:47:01.697Z,14.57
2018-11-05T11:49:29.919Z,14.80
2018-11-05T11:51:58.055Z,17.12
2018-11-05T11:54:26.245Z,21.27
2018-11-05T11:56:54.443Z,14.55
2018-11-05T11:59:22.833Z,19.70
2018-11-05T12:01:56.384Z,13.43
2018-11-05T12:04:24.545Z,15.47
2018-11-05T12:06:52.910Z,16.75
2018-11-05T12:09:21.100Z,19.50
2018-11-05T12:11:49.419Z,13.10
2018-11-05T12:14:17.720Z,14.27
2018-11-05T12:16:46.212Z,14.80
2018-11-05T12:19:14.469Z,15.03
2018-11-05T12:21:42.794Z,15.23
2018-11-05T12:24:10.968Z,15.40
2018-11-05T12:26:39.266Z,18.03
2018-11-05T12:29:07.740Z,14.10
2018-11-05T12:31:36.005Z,21.68
2018-11-05T12:34:04.287Z,18.73
2018-11-05T12:36:32.505Z,16.90
2018-11-05T12:39:00.809Z,13.13
2018-11-05T12:41:29.071Z,15.43
2018-11-05T12:43:57.311Z,16.47
2018-11-05T12:46:25.437Z,17.27
2018-11-05T12:48:53.587Z,16.73
2018-11-05T12:51:21.732Z,17.73
2018-11-05T12:53:49.985Z,18.07
2018-11-05T12:56:18.168Z,17.90
2018-11-05T12:58:46.288Z,17.10
2018-11-05T13:01:14.779Z,16.43
2018-11-05T13:03:43.172Z,13.67
2018-11-05T13:06:11.705Z,11.63
2018-11-05T13:08:39.980Z,15.90
2018-11-05T13:11:08.145Z,15.10
2018-11-05T13:13:36.428Z,17.03
2018-11-05T13:16:04.644Z,9.60
2018-11-05T13:18:32.896Z,18.70
2018-11-05T13:21:01.131Z,15.18
2018-11-05T13:23:34.638Z,14.23
2018-11-05T13:26:03.380Z,14.23
2018-11-05T13:28:31.892Z,16.23
2018-11-05T13:31:00.260Z,16.90
2018-11-05T13:33:28.934Z,14.83
2018-11-05T13:35:57.270Z,14.93
2018-11-05T13:38:25.447Z,14.83
2018-11-05T13:40:53.931Z,11.87
2018-11-05T13:43:22.192Z,12.98
2018-11-05T13:45:50.828Z,9.73
2018-11-05T13:48:18.923Z,12.33
2018-11-05T13:50:46.752Z,16.73
2018-11-05T13:53:15.101Z,13.30
2018-11-05T13:55:43.399Z,11.43
2018-11-05T13:58:11.678Z,11.67
2018-11-05T14:00:39.863Z,15.63
2018-11-05T14:03:08.134Z,13.03
2018-11-05T14:05:36.280Z,12.27
2018-11-05T14:08:04.467Z,11.57
2018-11-05T14:10:32.610Z,9.93
2018-11-05T14:13:00.729Z,12.30
2018-11-05T14:15:29.044Z,13.70
2018-11-05T14:17:58.073Z,16.77
2018-11-05T14:20:26.316Z,12.53
2018-11-05T14:22:54.598Z,12.07
2018-11-05T14:25:23.040Z,13.03
2018-11-05T14:27:52.316Z,13.28
2018-11-05T14:30:20.439Z,12.07
2018-11-05T14:32:49.680Z,12.70
2018-11-05T14:35:17.967Z,9.00
2018-11-05T14:37:46.198Z,10.10
2018-11-05T14:40:16.477Z,13.93
2018-11-05T14:42:44.696Z,9.70
2018-11-05T14:45:14.174Z,15.40
2018-11-05T14:47:43.315Z,11.13
2018-11-05T14:50:14.028Z,13.87
2018-11-05T14:52:42.362Z,11.57
2018-11-05T14:55:13.790Z,12.17
2018-11-05T14:57:42.792Z,10.43
2018-11-05T15:00:14.230Z,11.67
2018-11-05T15:02:42.668Z,23.33
2018-11-05T15:05:11.765Z,12.00
2018-11-05T15:07:40.840Z,8.70
2018-11-05T15:10:10.975Z,14.53
2018-11-05T15:12:39.508Z,11.93
2018-11-05T15:15:08.779Z,13.37
2018-11-05T15:17:37.060Z,11.40
2018-11-05T15:20:07.685Z,9.00
2018-11-05T15:22:35.805Z,10.73
2018-11-05T15:25:04.117Z,11.70
2018-11-05T15:27:32.256Z,10.53
2018-11-05T15:30:00.779Z,22.03
2018-11-05T15:32:30.157Z,19.73
2018-11-05T15:34:58.383Z,20.70
2018-11-05T15:37:26.926Z,23.57
2018-11-05T15:39:55.755Z,14.28
2018-11-05T15:42:24.008Z,16.90
2018-11-05T15:44:52.229Z,13.25
2018-11-05T15:47:20.487Z,16.33
2018-11-05T15:49:48.899Z,10.80
2018-11-05T15:52:24.003Z,11.67
2018-11-05T15:54:51.744Z,18.20
2018-11-05T15:57:19.975Z,12.33
2018-11-05T15:59:48.271Z,16.67
2018-11-05T16:02:16.627Z,14.80
2018-11-05T16:04:44.981Z,15.05
2018-11-05T16:07:13.428Z,17.37
2018-11-05T16:09:41.563Z,21.60
2018-11-05T16:12:09.786Z,20.70
2018-11-05T16:14:38.065Z,20.48
2018-11-05T16:17:06.198Z,21.17
2018-11-05T16:19:34.380Z,19.93
2018-11-05T16:22:02.671Z,19.90
2018-11-05T16:24:31.842Z,13.88
2018-11-05T16:26:59.900Z,27.20
2018-11-05T16:29:28.157Z,21.43
2018-11-05T16:31:56.399Z,14.83
2018-11-05T16:34:24.637Z,24.47
2018-11-05T16:36:52.753Z,49.80
2018-11-05T16:39:21.050Z,67.23
2018-11-05T16:41:49.280Z,56.80
2018-11-05T16:44:17.459Z,28.63
2018-11-05T16:46:45.635Z,24.47
2018-11-05T16:49:20.812Z,18.93
2018-11-05T16:51:49.080Z,22.55
2018-11-05T16:54:17.392Z,24.00
2018-11-05T16:56:45.563Z,17.30
2018-11-05T16:59:13.800Z,21.17
2018-11-05T17:01:42.330Z,17.23
2018-11-05T17:04:10.242Z,19.67
2018-11-05T17:06:38.367Z,29.72
2018-11-05T17:09:08.605Z,14.53
2018-11-05T17:11:36.728Z,16.40
2018-11-05T17:14:05.268Z,20.10
2018-11-05T17:16:33.447Z,18.20
2018-11-05T17:19:01.709Z,18.90
2018-11-05T17:21:29.871Z,16.65
2018-11-05T17:23:58.091Z,16.23
2018-11-05T17:26:26.291Z,23.63
2018-11-05T17:28:54.431Z,22.43
2018-11-05T17:31:22.730Z,23.60
2018-11-05T17:33:51.021Z,25.80
2018-11-05T17:36:19.091Z,31.05
2018-11-05T17:38:47.341Z,32.35
2018-11-05T17:41:15.564Z,29.93
2018-11-05T17:43:43.783Z,24.83
2018-11-05T17:46:11.941Z,26.07
2018-11-05T17:48:40.428Z,42.37
2018-11-05T17:51:09.088Z,31.27
2018-11-05T17:53:37.233Z,29.40
2018-11-05T17:56:05.705Z,32.07
2018-11-05T17:58:34.128Z,30.65
2018-11-05T18:01:02.300Z,37.53
2018-11-05T18:03:30.482Z,35.83
2018-11-05T18:05:58.688Z,31.50
2018-11-05T18:08:27.088Z,36.50
2018-11-05T18:10:55.224Z,36.60
2018-11-05T18:13:23.628Z,44.70
2018-11-05T18:15:52.005Z,36.27
2018-11-05T18:18:20.482Z,42.37
2018-11-05T18:20:48.917Z,41.25
2018-11-05T18:23:17.219Z,33.13
2018-11-05T18:25:45.381Z,41.07
2018-11-05T18:28:13.591Z,46.80
2018-11-05T18:30:41.879Z,40.27
2018-11-05T18:33:10.018Z,33.77
2018-11-05T18:35:38.254Z,42.27
2018-11-05T18:38:06.509Z,38.73
2018-11-05T18:40:36.477Z,39.88
2018-11-05T18:43:05.818Z,33.25
2018-11-05T18:45:33.996Z,39.17
2018-11-05T18:48:02.129Z,30.37
2018-11-05T18:50:30.292Z,31.50
2018-11-05T18:52:58.509Z,33.60
2018-11-05T18:55:26.723Z,36.58
2018-11-05T18:57:55.068Z,31.77
2018-11-05T19:00:25.484Z,33.90
2018-11-05T19:02:54.855Z,33.97
2018-11-05T19:05:24.067Z,36.87
2018-11-05T19:07:52.415Z,33.90
2018-11-05T19:10:20.567Z,29.13
2018-11-05T19:12:49.387Z,25.13
2018-11-05T19:15:17.772Z,30.23
2018-11-05T19:17:46.811Z,34.20
2018-11-05T19:20:15.080Z,51.80
2018-11-05T19:22:44.181Z,31.23
2018-11-05T19:25:13.275Z,31.77
2018-11-05T19:27:41.783Z,32.47
2018-11-05T19:30:15.421Z,38.63
2018-11-05T19:32:43.963Z,33.60
2018-11-05T19:35:12.595Z,32.90
2018-11-05T19:37:41.460Z,33.57
2018-11-05T19:40:11.302Z,28.60
2018-11-05T19:42:40.250Z,36.73
2018-11-05T19:45:10.355Z,33.53
2018-11-05T19:47:39.124Z,36.90
2018-11-05T19:50:09.880Z,37.80
2018-11-05T19:52:38.369Z,35.90
2018-11-05T19:55:07.921Z,34.03
2018-11-05T19:57:36.793Z,47.73
2018-11-05T20:00:07.303Z,37.37
2018-11-05T20:02:35.465Z,36.90
2018-11-05T20:05:03.677Z,38.50
2018-11-05T20:07:31.916Z,34.70
2018-11-05T20:10:00.276Z,38.13
2018-11-05T20:12:28.662Z,33.43
2018-11-05T20:14:57.330Z,33.73
2018-11-05T20:17:25.586Z,42.47
2018-11-05T20:19:53.750Z,39.57
2018-11-05T20:22:22.027Z,35.77
2018-11-05T20:24:50.361Z,35.27
2018-11-05T20:27:19.213Z,34.10
2018-11-05T20:29:47.551Z,40.13
2018-11-05T20:32:16.354Z,44.70
2018-11-05T20:34:44.182Z,36.37
2018-11-05T20:37:12.560Z,39.00
2018-11-05T20:39:40.840Z,33.17
2018-11-05T20:42:09.457Z,34.50
2018-11-05T20:44:37.714Z,36.23
2018-11-05T20:47:06.416Z,33.40
2018-11-05T20:49:34.636Z,29.47
2018-11-05T20:52:02.905Z,30.63
2018-11-05T20:54:31.246Z,25.57
2018-11-05T20:56:59.565Z,26.50
2018-11-05T20:59:28.124Z,35.13
2018-11-05T21:01:56.377Z,41.93
2018-11-05T21:04:24.628Z,35.67
2018-11-05T21:06:52.835Z,26.60
2018-11-05T21:09:21.059Z,25.33
2018-11-05T21:11:49.305Z,24.55
2018-11-05T21:14:17.714Z,25.53
2018-11-05T21:16:45.981Z,34.63
2018-11-05T21:19:14.503Z,27.27
2018-11-05T21:21:42.960Z,23.67
2018-11-05T21:24:10.995Z,26.30
2018-11-05T21:26:39.250Z,19.57
2018-11-05T21:29:07.624Z,25.03
2018-11-05T21:31:35.826Z,22.93
2018-11-05T21:34:04.122Z,18.98
2018-11-05T21:36:32.419Z,18.87
2018-11-05T21:39:00.660Z,91.83
2018-11-05T21:41:28.995Z,41.07
2018-11-05T21:43:57.364Z,28.63
2018-11-05T21:46:25.664Z,24.30
2018-11-05T21:48:54.005Z,26.57
2018-11-05T21:51:22.217Z,30.43
2018-11-05T21:53:50.780Z,28.23
2018-11-05T21:56:18.972Z,32.08
2018-11-05T21:58:47.166Z,30.77
2018-11-05T22:02:42.505Z,31.52
2018-11-05T22:05:10.632Z,29.80
2018-11-05T22:07:38.809Z,26.73
2018-11-05T22:10:07.087Z,21.07
2018-11-05T22:12:35.532Z,25.60
2018-11-05T22:15:04.395Z,23.03
2018-11-05T22:17:32.695Z,24.37
2018-11-05T22:20:00.973Z,21.42
2018-11-05T22:22:29.471Z,23.00
2018-11-05T22:24:58.146Z,17.60
2018-11-05T22:27:26.517Z,25.37
2018-11-05T22:29:55.058Z,26.50
2018-11-05T22:32:23.220Z,28.65
2018-11-05T22:34:51.772Z,31.30
2018-11-05T22:37:20.244Z,28.80
2018-11-05T22:39:48.467Z,26.53
2018-11-05T22:42:16.632Z,22.45
2018-11-05T22:44:44.755Z,26.15
2018-11-05T22:47:12.921Z,34.40
2018-11-05T22:49:41.093Z,26.60
2018-11-05T22:52:09.758Z,30.70
2018-11-05T22:54:38.139Z,27.87
2018-11-05T22:57:12.956Z,34.43
2018-11-05T22:59:41.112Z,34.10
2018-11-05T23:02:09.305Z,21.57
2018-11-05T23:04:37.488Z,27.13
2018-11-05T23:07:05.840Z,29.52
2018-11-05T23:09:33.967Z,24.80
2018-11-05T23:12:02.175Z,25.90
2018-11-05T23:14:30.340Z,24.80
2018-11-05T23:16:58.727Z,20.90
2018-11-05T23:19:27.190Z,26.03
2018-11-05T23:21:55.508Z,23.40
2018-11-05T23:24:23.705Z,25.33
2018-11-05T23:26:52.005Z,28.80
2018-11-05T23:29:20.138Z,24.77
2018-11-05T23:31:48.315Z,40.90
2018-11-05T23:34:16.487Z,38.60
2018-11-05T23:36:44.624Z,44.10
2018-11-05T23:39:12.948Z,37.42
2018-11-05T23:41:41.434Z,38.90
2018-11-05T23:44:09.658Z,32.43
2018-11-05T23:46:37.795Z,39.10
2018-11-05T23:49:06.009Z,26.50
2018-11-05T23:51:34.218Z,33.43
2018-11-05T23:54:02.339Z,33.53
2018-11-05T23:56:30.564Z,34.67
2018-11-05T23:58:58.968Z,36.10
